Flight Track Log - Related Links

Times and Time Zones

All times are in EDT time to prevent confusion due to time zone crossing. See the AWE1974 flight status page for this flight to view local times or setup timezone preferences in your user account.

Time Position Orientation Groundspeed Altitude Reporting Facility
EDT Latitude Longitude Course Direction KTS MPH feet Rate Location/Type
Fri 01:09:36 PM 26.0750 -80.1319 356° North 170 196 1,100  Level Miami Center
Fri 01:10:44 PM 26.0869 -80.0700 78° East 180 207 2,400 1,500 Climbing Miami Center
Fri 01:11:44 PM 26.1217 -80.0108 57° Northeast 202 232 4,300 1,250 Climbing Miami Center
Fri 01:12:44 PM 26.1792 -80.0517 327° Northwest 157 181 4,900 1,050 Climbing Miami Center
Fri 01:13:00 PM 26.4958 -80.1865 356° North  Level Estimated
Fri 01:13:44 PM 26.2364 -80.1064 319° Northwest 218 251 6,400  Level Miami Center
Fri 01:14:00 PM 26.6016 -80.1950 356° North  Level Estimated
Fri 01:14:44 PM 26.2997 -80.1683 319° Northwest 253 291 9,200  Level Miami Center
Fri 01:15:44 PM 26.3633 -80.2258 321° Northwest 280 322 10,900 1,250 Climbing Miami Center
Fri 01:16:44 PM 26.4267 -80.2856 320° Northwest 317 365 11,700 1,450 Climbing Miami Center
Fri 01:17:44 PM 26.5125 -80.3647 320° Northwest 354 407 13,800 1,800 Climbing Miami Center
Fri 01:18:44 PM 26.5625 -80.4497 303° West 367 422 15,300 1,550 Climbing Miami Center
Fri 01:19:44 PM 26.6458 -80.5428 315° West 378 435 16,900 1,500 Climbing Miami Center
Fri 01:20:44 PM 26.7367 -80.5853 337° Northwest 378 435 18,300 1,450 Climbing Miami Center
Fri 01:21:44 PM 26.8442 -80.6283 340° North 383 441 19,800 1,450 Climbing Miami Center
Fri 01:22:44 PM 26.9494 -80.6714 340° North 397 457 21,200 1,400 Climbing Miami Center
Fri 01:23:44 PM 27.0569 -80.7167 339° North 408 470 22,600 1,350 Climbing Miami Center
Fri 01:24:44 PM 27.1664 -80.7600 341° North 408 470 23,900 1,150 Climbing Miami Center
Fri 01:25:44 PM 27.2758 -80.8081 339° North 408 470 24,900 1,200 Climbing Miami Center
Fri 01:26:44 PM 27.3831 -80.8517 340° North 408 470 26,300 1,050 Climbing Miami Center
Fri 01:27:44 PM 27.4883 -80.8950 340° North 408 470 27,000 350 Climbing Miami Center
Fri 01:28:44 PM 27.5997 -80.9411 340° North 418 481 27,000  Level Miami Center
Fri 01:29:44 PM 27.7175 -80.9900 340° North 418 481 27,000  Level Miami Center
Fri 01:30:44 PM 27.8247 -81.0336 340° North 413 475 27,000  Level Miami Center
Fri 01:31:44 PM 27.9319 -81.0800 339° North 408 470 27,000  Level Miami Center
Fri 01:32:44 PM 28.0267 -81.1186 340° North 408 470 27,000  Level Miami Center
Fri 01:35:02 PM 28.2872 -81.2283 340° North 415 478 27,000  Level Jacksonville Center
Fri 01:36:02 PM 28.3922 -81.2739 339° North 415 478 27,000  Level Jacksonville Center
Fri 01:37:02 PM 28.4972 -81.3169 340° North 415 478 27,000  Level Jacksonville Center
Fri 01:38:02 PM 28.6142 -81.3411 350° North 415 478 27,000  Level Jacksonville Center
Fri 01:39:02 PM 28.7272 -81.3536 354° North 410 472 27,000  Level Jacksonville Center
Fri 01:40:02 PM 28.8317 -81.3664 354° North 410 472 27,000  Level Jacksonville Center
Fri 01:41:02 PM 28.9464 -81.3764 356° North 410 472 27,000  Level Jacksonville Center
Fri 01:42:02 PM 29.0636 -81.3864 356° North 410 472 27,000  Level Jacksonville Center
Fri 01:43:02 PM 29.1786 -81.3989 355° North 415 478 27,000  Level Jacksonville Center
Fri 01:44:02 PM 29.2933 -81.4067 357° North 415 478 27,000 -50 Level Jacksonville Center
Fri 01:45:02 PM 29.4083 -81.4194 354° North 415 478 26,900 -50 Descending Jacksonville Center
Fri 01:46:02 PM 29.5233 -81.4319 355° North 415 478 26,900 50 Level Jacksonville Center
Fri 01:47:02 PM 29.6403 -81.4444 355° North 410 472 27,000 50 Climbing Jacksonville Center
Fri 01:48:02 PM 29.7553 -81.4547 356° North 410 472 27,000  Level Jacksonville Center
Fri 01:49:02 PM 29.8703 -81.4650 356° North 410 472 27,000  Level Jacksonville Center
Fri 01:50:02 PM 29.9872 -81.4753 356° North 410 472 27,000  Level Jacksonville Center
Fri 01:51:02 PM 30.1044 -81.4903 354° North 410 472 27,000  Level Jacksonville Center
Fri 01:52:02 PM 30.2192 -81.5008 355° North 410 472 27,000  Level Jacksonville Center
Fri 01:53:02 PM 30.3383 -81.5086 357° North 415 478 27,000  Level Jacksonville Center
Fri 01:54:02 PM 30.4572 -81.5019 North 420 483 27,000  Level Jacksonville Center
Fri 01:55:02 PM 30.5742 -81.4931 North 420 483 27,000  Level Jacksonville Center
Fri 01:56:02 PM 30.6950 -81.4817 North 420 483 27,000  Level Jacksonville Center
Fri 01:57:02 PM 30.8119 -81.4728 North 420 483 27,000  Level Jacksonville Center
Fri 01:58:02 PM 30.9289 -81.4661 North 420 483 27,000  Level Jacksonville Center
Fri 01:59:02 PM 31.0475 -81.4547 North 420 483 27,000  Level Jacksonville Center
Fri 02:00:02 PM 31.1667 -81.4481 North 420 483 27,000  Level Jacksonville Center
Fri 02:01:02 PM 31.2811 -81.4342 North 420 483 27,000  Level Jacksonville Center
Fri 02:02:02 PM 31.4078 -81.3736 22° Northeast 428 493 27,000  Level Jacksonville Center
Fri 02:03:02 PM 31.5094 -81.3208 24° Northeast 443 510 27,000  Level Jacksonville Center
Fri 02:04:02 PM 31.6319 -81.2578 24° Northeast 438 504 27,000  Level Jacksonville Center
Fri 02:05:02 PM 31.7439 -81.1997 24° Northeast 438 504 27,000  Level Jacksonville Center
Fri 02:06:02 PM 31.8433 -81.1464 24° Northeast 438 504 27,000  Level Jacksonville Center
Fri 02:07:02 PM 31.9553 -81.0881 24° Northeast 437 503 27,000  Level Jacksonville Center
Fri 02:08:02 PM 32.0692 -81.0269 24° Northeast 442 509 27,000  Level Jacksonville Center
Fri 02:09:02 PM 32.1936 -80.9656 23° Northeast 437 503 27,000  Level Jacksonville Center
Fri 02:10:02 PM 32.3056 -80.9067 24° Northeast 437 503 27,000  Level Jacksonville Center
Fri 02:11:02 PM 32.4047 -80.8528 25° Northeast 437 503 27,000  Level Jacksonville Center
Fri 02:12:02 PM 32.5186 -80.7936 24° Northeast 437 503 27,000  Level Jacksonville Center
Fri 02:13:02 PM 32.6283 -80.7317 25° Northeast 437 503 27,000  Level Jacksonville Center
Fri 02:14:02 PM 32.7442 -80.6722 23° Northeast 437 503 27,000 -100 Level Jacksonville Center
Fri 02:15:02 PM 32.8536 -80.6125 25° Northeast 437 503 26,800 -600 Descending Jacksonville Center
Fri 02:16:02 PM 32.9633 -80.5553 24° Northeast 437 503 25,800 -1,000 Descending Jacksonville Center
Fri 02:17:02 PM 33.0708 -80.4981 24° Northeast 431 496 24,800 -900 Descending Jacksonville Center
Fri 02:18:02 PM 33.1761 -80.4406 25° Northeast 425 489 24,000 -400 Descending Jacksonville Center
Fri 02:19:02 PM 33.2917 -80.3778 24° Northeast 414 476 24,000 -400 Level Jacksonville Center
Fri 02:20:02 PM 33.3992 -80.3200 24° Northeast 414 476 23,200 -1,388 Descending Jacksonville Center
Fri 02:21:03 PM 33.5003 -80.2647 25° Northeast 414 476 21,200 -1,100 Descending Jacksonville Center
Fri 02:22:02 PM 33.5994 -80.2144 23° Northeast 396 456 21,000 -101 Descending Jacksonville Center
Fri 02:23:02 PM 33.6997 -80.2214 357° North 366 421 21,000  Level Jacksonville Center
Fri 02:24:03 PM 33.8022 -80.2333 354° North 361 415 21,000 -250 Level Jacksonville Center
Fri 02:25:02 PM 33.9025 -80.2478 353° North 367 422 20,500 -756 Descending Jacksonville Center
Fri 02:26:02 PM 34.0031 -80.2597 354° North 367 422 19,500 -1,000 Descending Jacksonville Center
Fri 02:27:02 PM 34.1014 -80.2719 354° North 367 422 18,500 -900 Descending Jacksonville Center
Fri 02:28:02 PM 34.2036 -80.2789 357° North 367 422 17,700 -900 Descending Jacksonville Center
Fri 02:29:02 PM 34.2978 -80.2936 353° North 361 415 16,700 -950 Descending Jacksonville Center
Fri 02:30:02 PM 34.3939 -80.3033 355° North 351 404 15,800 -1,477 Descending Jacksonville Center
Fri 02:32:21 PM 34.6044 -80.3342 353° North 337 388 11,800 -1,398 Descending Atlanta Center
Fri 02:33:28 PM 34.7008 -80.3475 354° North 290 334 11,000 -375 Descending Atlanta Center
Fri 02:34:29 PM 34.7547 -80.4083 317° Northwest 254 292 11,000  Level Atlanta Center
Fri 02:35:36 PM 34.8133 -80.4817 314° West 259 298 11,000  Level Atlanta Center
Fri 02:36:38 PM 34.8611 -80.5431 313° West 260 299 11,000  Level Atlanta Center
Fri 02:37:45 PM 34.9194 -80.6164 314° West 260 299 11,000 -703 Level Atlanta Center
Fri 02:38:46 PM 34.9714 -80.6803 315° West 258 297 9,500 -1,043 Descending Atlanta Center
Fri 02:39:40 PM 35.0167 -80.7392 313° West 260 299 9,000 -273 Descending Atlanta Center
Fri 02:40:36 PM 35.0642 -80.7983 314° West 265 305 9,000  Level Atlanta Center
Fri 02:41:37 PM 35.1314 -80.8161 348° North 251 289 9,000 -443 Level Atlanta Center
Fri 02:42:38 PM 35.1919 -80.8186 358° North 210 242 8,100 -1,475 Descending Atlanta Center
Fri 02:43:39 PM 35.2364 -80.7661 44° Northeast 220 253 6,000 -1,770 Descending Atlanta Center
Fri 02:44:40 PM 35.2858 -80.7439 20° North 197 227 4,500 -934 Descending Atlanta Center
Fri 02:45:41 PM 35.2997 -80.7942 289° West 166 191 4,100 -927 Descending Atlanta Center
Fri 02:46:43 PM 35.2847 -80.8508 252° West 183 211 2,600 -1,116 Descending Atlanta Center
Fri 02:47:50 PM 35.2503 -80.8928 225° Southwest 141 162 1,700 -787 Descending Atlanta Center
Fri 02:48:45 PM 35.2261 -80.9292 231° Southwest 138 159 1,000 -764 Descending Atlanta Center

Login

Don't have an account? Register now (free) for customized features, flight alerts, and more!